JOHN F KENNEDY INTL

KJFK (JFK)
New York, New York
Towered

Vatsim Metar:
KJFK 111051Z 36006KT 1 1/2SM -SN BR OVC008 01/01 A3022 RMK AO2 SLP232 P0009 T00060006 $

No ATC Online

Traffic

Inbound:
Ident
Type
Name
ETA
Phase
EIN109
H/A333
Fisnik Lluka ENTO
16:49 Z
Descent
RDN4798
H/B789/L
Ian Chia WSSS
17:30 Z
Climb

Outbound:
Ident
Type
Name
Destination
Phase
STV1015
H/B744/L
Kurt Wieser EDDF
KPHX
Taxiing Out
BAW180
H/B744/L
julien richard EGKK
EGLL
Taxiing Out
BAW178
H/B744/L
Alex BERGER LTBA
EGLL
Taxiing Out
AAL2268
B738/L
Bob Klemm KMIA
KMIA
Climb
VIR46Z
A333
Adam Shellard EGHI
EGLL
Climb